NOZ33B EGKK-ENGM
Flight info
| Callsign | NOZ33B |
|---|---|
| Flight time | N/A |
| Altitude | 37000 |
| Route | FRANE M604 GIVPO DCT LARGA DCT TINAC DCT KARLI DCT RIVEX DCT OSKOM DCT RIPAM |
| Aircraft | B738/M-SDE2E3FGHIRWXY/LB1 |
Departure
| Time | 2026-05-06 20:49 |
|---|---|
| Airport | London Gatwick Airport (EGKK) |
Arrival
| Time | N/A |
|---|---|
| Airport | Oslo-Gardermoen International Airport (ENGM) |
| Time | Latitude | Longitude | Altitude | Speed | Heading |
|---|---|---|---|---|---|
| 2026-05-06 20:05 | 51.15534 | -0.16602 | 203 ft | 0 kts | 348° |
| 2026-05-06 20:30 | 51.15513 | -0.16594 | 203 ft | 4 kts | 343° |
| 2026-05-06 20:31 | 51.15490 | -0.16583 | 203 ft | 3 kts | 343° |
| 2026-05-06 20:31 | 51.15471 | -0.16563 | 203 ft | 4 kts | 291° |
| 2026-05-06 20:31 | 51.15468 | -0.16525 | 203 ft | 2 kts | 258° |
| 2026-05-06 20:31 | 51.15469 | -0.16515 | 203 ft | 0 kts | 258° |
| 2026-05-06 20:35 | 51.15469 | -0.16518 | 203 ft | 2 kts | 258° |
| 2026-05-06 20:35 | 51.15459 | -0.16586 | 203 ft | 10 kts | 257° |
| 2026-05-06 20:36 | 51.15445 | -0.16702 | 203 ft | 11 kts | 268° |
| 2026-05-06 20:36 | 51.15450 | -0.16814 | 203 ft | 10 kts | 258° |
| 2026-05-06 20:36 | 51.15435 | -0.16923 | 203 ft | 10 kts | 258° |
| 2026-05-06 20:36 | 51.15421 | -0.17030 | 203 ft | 10 kts | 257° |
| 2026-05-06 20:37 | 51.15405 | -0.17133 | 203 ft | 9 kts | 248° |
| 2026-05-06 20:37 | 51.15380 | -0.17227 | 203 ft | 9 kts | 250° |
| 2026-05-06 20:37 | 51.15368 | -0.17286 | 203 ft | 0 kts | 255° |
| 2026-05-06 20:39 | 51.15362 | -0.17320 | 203 ft | 8 kts | 254° |
| 2026-05-06 20:40 | 51.15306 | -0.17403 | 203 ft | 13 kts | 243° |
| 2026-05-06 20:40 | 51.15287 | -0.17542 | 203 ft | 13 kts | 256° |
| 2026-05-06 20:40 | 51.15268 | -0.17678 | 203 ft | 12 kts | 259° |
| 2026-05-06 20:40 | 51.15249 | -0.17818 | 203 ft | 14 kts | 258° |
| 2026-05-06 20:41 | 51.15225 | -0.17997 | 203 ft | 19 kts | 258° |
| 2026-05-06 20:41 | 51.15195 | -0.18213 | 203 ft | 21 kts | 257° |
| 2026-05-06 20:41 | 51.15170 | -0.18440 | 202 ft | 21 kts | 257° |
| 2026-05-06 20:41 | 51.15140 | -0.18658 | 202 ft | 20 kts | 256° |
| 2026-05-06 20:42 | 51.15111 | -0.18871 | 202 ft | 19 kts | 258° |
| 2026-05-06 20:42 | 51.15083 | -0.19076 | 203 ft | 19 kts | 258° |
| 2026-05-06 20:42 | 51.15056 | -0.19274 | 203 ft | 18 kts | 257° |
| 2026-05-06 20:42 | 51.15028 | -0.19474 | 203 ft | 21 kts | 257° |
| 2026-05-06 20:43 | 51.14993 | -0.19723 | 203 ft | 23 kts | 257° |
| 2026-05-06 20:43 | 51.14960 | -0.19969 | 203 ft | 22 kts | 258° |
| 2026-05-06 20:43 | 51.14927 | -0.20209 | 202 ft | 22 kts | 258° |
| 2026-05-06 20:43 | 51.14895 | -0.20436 | 202 ft | 20 kts | 257° |
| 2026-05-06 20:44 | 51.14865 | -0.20653 | 202 ft | 20 kts | 258° |
| 2026-05-06 20:44 | 51.14836 | -0.20863 | 203 ft | 19 kts | 257° |
| 2026-05-06 20:44 | 51.14808 | -0.21067 | 203 ft | 19 kts | 257° |
| 2026-05-06 20:44 | 51.14772 | -0.21258 | 203 ft | 18 kts | 261° |
| 2026-05-06 20:45 | 51.14732 | -0.21399 | 203 ft | 11 kts | 198° |
| 2026-05-06 20:45 | 51.14665 | -0.21363 | 203 ft | 10 kts | 134° |
| 2026-05-06 20:45 | 51.14618 | -0.21326 | 203 ft | 0 kts | 170° |
| 2026-05-06 20:46 | 51.14615 | -0.21325 | 203 ft | 2 kts | 170° |
| 2026-05-06 20:46 | 51.14562 | -0.21300 | 202 ft | 13 kts | 154° |
| 2026-05-06 20:46 | 51.14520 | -0.21174 | 201 ft | 12 kts | 87° |
| 2026-05-06 20:47 | 51.14528 | -0.21107 | 202 ft | 9 kts | 78° |
| 2026-05-06 20:47 | 51.14541 | -0.21013 | 203 ft | 7 kts | 77° |
| 2026-05-06 20:47 | 51.14542 | -0.21005 | 203 ft | 0 kts | 76° |
| 2026-05-06 20:48 | 51.14551 | -0.20945 | 203 ft | 22 kts | 77° |
| 2026-05-06 20:48 | 51.14635 | -0.20335 | 205 ft | 89 kts | 77° |
| 2026-05-06 20:48 | 51.14812 | -0.19046 | 204 ft | 147 kts | 78° |
| 2026-05-06 20:49 | 51.15055 | -0.17222 | 328 ft | 182 kts | 79° |
| 2026-05-06 20:49 | 51.15312 | -0.15273 | 1101 ft | 178 kts | 78° |
| 2026-05-06 20:49 | 51.15602 | -0.13306 | 1767 ft | 182 kts | 77° |
| 2026-05-06 20:49 | 51.15886 | -0.11330 | 2121 ft | 207 kts | 78° |
| 2026-05-06 20:50 | 51.16227 | -0.09038 | 2580 ft | 218 kts | 77° |
| 2026-05-06 20:50 | 51.16570 | -0.06548 | 2808 ft | 239 kts | 78° |
| 2026-05-06 20:50 | 51.16904 | -0.03861 | 3131 ft | 259 kts | 85° |
| 2026-05-06 20:50 | 51.16902 | -0.00972 | 3690 ft | 269 kts | 93° |
| 2026-05-06 20:51 | 51.16820 | 0.02060 | 4430 ft | 273 kts | 92° |
| 2026-05-06 20:51 | 51.16889 | 0.05081 | 5026 ft | 277 kts | 75° |
| 2026-05-06 20:51 | 51.17881 | 0.07679 | 5744 ft | 279 kts | 40° |
| 2026-05-06 20:51 | 51.19478 | 0.09435 | 6478 ft | 281 kts | 33° |
| 2026-05-06 20:52 | 51.21119 | 0.11180 | 7135 ft | 286 kts | 33° |
| 2026-05-06 20:52 | 51.22757 | 0.12933 | 7800 ft | 289 kts | 34° |
| 2026-05-06 20:52 | 51.24434 | 0.14740 | 8473 ft | 292 kts | 34° |
| 2026-05-06 20:52 | 51.26121 | 0.16572 | 9108 ft | 295 kts | 34° |
| 2026-05-06 20:53 | 51.27828 | 0.18435 | 9728 ft | 299 kts | 34° |
| 2026-05-06 20:53 | 51.29272 | 0.20020 | 10230 ft | 302 kts | 34° |
| 2026-05-06 20:53 | 51.31054 | 0.21982 | 10417 ft | 321 kts | 34° |
| 2026-05-06 20:53 | 51.32942 | 0.24067 | 10566 ft | 339 kts | 34° |
| 2026-05-06 20:54 | 51.34923 | 0.26260 | 10806 ft | 352 kts | 34° |
| 2026-05-06 20:54 | 51.36952 | 0.28510 | 11253 ft | 357 kts | 34° |
| 2026-05-06 20:54 | 51.39000 | 0.30783 | 11796 ft | 359 kts | 34° |
| 2026-05-06 20:54 | 51.41054 | 0.33068 | 12299 ft | 362 kts | 34° |
| 2026-05-06 20:55 | 51.43131 | 0.35381 | 12785 ft | 365 kts | 34° |
| 2026-05-06 20:55 | 51.45222 | 0.37713 | 12988 ft | 367 kts | 34° |
| 2026-05-06 20:55 | 51.47324 | 0.40060 | 12991 ft | 367 kts | 34° |
| 2026-05-06 20:55 | 51.49418 | 0.42401 | 12999 ft | 367 kts | 35° |
| 2026-05-06 20:56 | 51.51511 | 0.44745 | 13006 ft | 367 kts | 35° |
| 2026-05-06 20:56 | 51.53605 | 0.47090 | 13005 ft | 368 kts | 35° |
| 2026-05-06 20:56 | 51.55707 | 0.49448 | 13005 ft | 369 kts | 35° |
| 2026-05-06 20:56 | 51.57809 | 0.51808 | 13002 ft | 369 kts | 35° |
| 2026-05-06 20:57 | 51.59911 | 0.54170 | 13013 ft | 371 kts | 35° |
| 2026-05-06 20:57 | 51.62039 | 0.56565 | 13456 ft | 374 kts | 35° |
| 2026-05-06 20:57 | 51.64167 | 0.58962 | 14014 ft | 374 kts | 35° |
| 2026-05-06 20:57 | 51.66303 | 0.61372 | 14496 ft | 376 kts | 35° |
| 2026-05-06 20:58 | 51.68457 | 0.63805 | 14936 ft | 380 kts | 35° |
| 2026-05-06 20:58 | 51.70632 | 0.66265 | 15372 ft | 383 kts | 35° |
| 2026-05-06 20:58 | 51.72820 | 0.68743 | 15801 ft | 386 kts | 35° |
| 2026-05-06 20:58 | 51.75003 | 0.71219 | 16216 ft | 389 kts | 35° |
| 2026-05-06 20:59 | 51.77243 | 0.73761 | 16624 ft | 391 kts | 35° |
| 2026-05-06 20:59 | 51.79477 | 0.76298 | 17006 ft | 394 kts | 35° |
| 2026-05-06 20:59 | 51.81727 | 0.78861 | 17370 ft | 397 kts | 36° |
| 2026-05-06 20:59 | 51.83878 | 0.81669 | 17717 ft | 399 kts | 42° |
| 2026-05-06 21:00 | 51.85948 | 0.84675 | 18060 ft | 402 kts | 41° |
| 2026-05-06 21:00 | 51.88031 | 0.87712 | 18384 ft | 404 kts | 42° |
| 2026-05-06 21:00 | 51.90117 | 0.90777 | 18696 ft | 406 kts | 42° |
| 2026-05-06 21:00 | 51.92133 | 0.93742 | 18984 ft | 408 kts | 42° |
| 2026-05-06 21:01 | 51.94241 | 0.96839 | 19273 ft | 410 kts | 42° |
| 2026-05-06 21:01 | 51.96362 | 0.99952 | 19545 ft | 413 kts | 42° |
| 2026-05-06 21:01 | 51.98496 | 1.03083 | 19813 ft | 415 kts | 42° |
| 2026-05-06 21:01 | 52.00643 | 1.06235 | 20082 ft | 416 kts | 42° |
| 2026-05-06 21:02 | 52.02791 | 1.09394 | 20330 ft | 418 kts | 42° |
| 2026-05-06 21:02 | 52.04956 | 1.12576 | 20563 ft | 420 kts | 41° |
| 2026-05-06 21:02 | 52.07234 | 1.15568 | 20783 ft | 422 kts | 36° |
| 2026-05-06 21:02 | 52.09586 | 1.18338 | 21019 ft | 423 kts | 36° |
| 2026-05-06 21:03 | 52.12009 | 1.21171 | 21262 ft | 424 kts | 36° |
| 2026-05-06 21:03 | 52.14345 | 1.24115 | 21483 ft | 426 kts | 39° |
| 2026-05-06 21:03 | 52.16435 | 1.26942 | 21665 ft | 427 kts | 40° |
| 2026-05-06 21:03 | 52.18702 | 1.30082 | 21852 ft | 429 kts | 40° |
| 2026-05-06 21:04 | 52.20979 | 1.33237 | 22035 ft | 430 kts | 40° |
| 2026-05-06 21:04 | 52.23269 | 1.36389 | 22214 ft | 432 kts | 40° |
| 2026-05-06 21:04 | 52.25573 | 1.39543 | 22390 ft | 433 kts | 40° |
| 2026-05-06 21:04 | 52.27891 | 1.42703 | 22562 ft | 434 kts | 40° |
| 2026-05-06 21:05 | 52.30212 | 1.45866 | 22720 ft | 436 kts | 40° |
| 2026-05-06 21:05 | 52.32544 | 1.49051 | 22877 ft | 437 kts | 40° |
| 2026-05-06 21:05 | 52.34828 | 1.52328 | 23029 ft | 438 kts | 44° |
| 2026-05-06 21:05 | 52.36990 | 1.55852 | 23175 ft | 439 kts | 46° |
| 2026-05-06 21:06 | 52.39097 | 1.59486 | 23314 ft | 440 kts | 47° |
| 2026-05-06 21:06 | 52.41196 | 1.63147 | 23442 ft | 441 kts | 47° |
| 2026-05-06 21:06 | 52.43308 | 1.66807 | 23515 ft | 444 kts | 46° |
| 2026-05-06 21:06 | 52.45445 | 1.70474 | 23642 ft | 444 kts | 46° |
| 2026-05-06 21:07 | 52.47587 | 1.74122 | 23800 ft | 444 kts | 46° |
| 2026-05-06 21:07 | 52.49734 | 1.77767 | 23924 ft | 445 kts | 46° |
| 2026-05-06 21:07 | 52.51888 | 1.81424 | 24018 ft | 446 kts | 46° |
| 2026-05-06 21:07 | 52.54047 | 1.85097 | 24114 ft | 447 kts | 46° |
| 2026-05-06 21:08 | 52.56206 | 1.88778 | 24214 ft | 448 kts | 46° |
| 2026-05-06 21:08 | 52.58368 | 1.92468 | 24318 ft | 449 kts | 46° |
| 2026-05-06 21:08 | 52.59792 | 1.94898 | 24383 ft | 449 kts | 46° |
| 2026-05-06 21:08 | 52.61495 | 1.97803 | 24456 ft | 450 kts | 46° |
| 2026-05-06 21:09 | 52.62771 | 1.99981 | 24510 ft | 450 kts | 46° |
| 2026-05-06 21:09 | 52.64944 | 2.03696 | 24597 ft | 451 kts | 46° |
| 2026-05-06 21:09 | 52.67118 | 2.07418 | 24681 ft | 451 kts | 46° |
| 2026-05-06 21:09 | 52.69296 | 2.11152 | 24752 ft | 452 kts | 46° |
| 2026-05-06 21:10 | 52.71478 | 2.14900 | 24831 ft | 452 kts | 46° |
| 2026-05-06 21:10 | 52.73658 | 2.18650 | 24897 ft | 453 kts | 46° |
| 2026-05-06 21:10 | 52.75840 | 2.22413 | 24963 ft | 454 kts | 46° |
| 2026-05-06 21:10 | 52.78023 | 2.26183 | 25031 ft | 455 kts | 46° |
| 2026-05-06 21:11 | 52.80209 | 2.29962 | 25099 ft | 455 kts | 46° |
| 2026-05-06 21:11 | 52.82367 | 2.33698 | 25167 ft | 456 kts | 46° |
| 2026-05-06 21:11 | 52.84555 | 2.37493 | 25233 ft | 456 kts | 46° |
| 2026-05-06 21:11 | 52.86745 | 2.41299 | 25295 ft | 456 kts | 46° |
| 2026-05-06 21:12 | 52.88934 | 2.45106 | 25346 ft | 457 kts | 46° |
| 2026-05-06 21:12 | 52.91130 | 2.48933 | 25401 ft | 458 kts | 46° |
| 2026-05-06 21:12 | 52.93324 | 2.52762 | 25467 ft | 458 kts | 46° |
| 2026-05-06 21:12 | 52.95518 | 2.56596 | 25525 ft | 459 kts | 46° |
| 2026-05-06 21:13 | 52.97777 | 2.60327 | 25567 ft | 459 kts | 40° |
| 2026-05-06 21:13 | 53.00334 | 2.63505 | 25611 ft | 460 kts | 32° |
| 2026-05-06 21:13 | 53.03155 | 2.66006 | 25678 ft | 459 kts | 26° |
| 2026-05-06 21:13 | 53.06033 | 2.68320 | 25728 ft | 460 kts | 25° |
| 2026-05-06 21:14 | 53.08921 | 2.70621 | 25745 ft | 461 kts | 25° |
| 2026-05-06 21:14 | 53.11841 | 2.72812 | 25811 ft | 461 kts | 22° |
| 2026-05-06 21:14 | 53.14808 | 2.74832 | 25910 ft | 460 kts | 21° |
| 2026-05-06 21:14 | 53.17786 | 2.76774 | 25957 ft | 460 kts | 21° |
| 2026-05-06 21:15 | 53.20772 | 2.78705 | 25977 ft | 461 kts | 21° |
| 2026-05-06 21:15 | 53.23763 | 2.80650 | 25994 ft | 462 kts | 21° |
| 2026-05-06 21:15 | 53.26757 | 2.82620 | 26010 ft | 463 kts | 21° |
| 2026-05-06 21:15 | 53.29744 | 2.84607 | 26078 ft | 462 kts | 21° |
| 2026-05-06 21:16 | 53.32731 | 2.86609 | 26150 ft | 462 kts | 21° |
| 2026-05-06 21:16 | 53.35712 | 2.88617 | 26173 ft | 463 kts | 22° |
| 2026-05-06 21:16 | 53.38691 | 2.90633 | 26313 ft | 458 kts | 22° |
| 2026-05-06 21:16 | 53.41607 | 2.92612 | 26633 ft | 448 kts | 22° |
| 2026-05-06 21:17 | 53.44469 | 2.94556 | 26997 ft | 441 kts | 22° |
| 2026-05-06 21:17 | 53.47291 | 2.96474 | 27358 ft | 434 kts | 22° |
| 2026-05-06 21:17 | 53.50079 | 2.98371 | 27678 ft | 430 kts | 22° |
| 2026-05-06 21:17 | 53.52831 | 3.00247 | 27993 ft | 425 kts | 22° |
| 2026-05-06 21:18 | 53.55560 | 3.02110 | 28234 ft | 423 kts | 22° |
| 2026-05-06 21:18 | 53.61062 | 3.05872 | 28277 ft | 430 kts | 22° |
| 2026-05-06 21:19 | 53.66598 | 3.09669 | 28340 ft | 435 kts | 22° |
| 2026-05-06 21:19 | 53.72224 | 3.13538 | 28487 ft | 437 kts | 22° |
| 2026-05-06 21:19 | 53.75034 | 3.15474 | 28642 ft | 436 kts | 22° |
| 2026-05-06 21:20 | 53.77850 | 3.17418 | 28711 ft | 438 kts | 22° |
| 2026-05-06 21:20 | 53.83483 | 3.21316 | 28970 ft | 436 kts | 22° |
| 2026-05-06 21:20 | 53.86291 | 3.23262 | 29127 ft | 436 kts | 22° |
| 2026-05-06 21:21 | 53.89104 | 3.25215 | 29149 ft | 438 kts | 22° |
| 2026-05-06 21:21 | 53.91920 | 3.27172 | 29289 ft | 437 kts | 22° |
| 2026-05-06 21:21 | 53.94726 | 3.29125 | 29455 ft | 435 kts | 22° |
| 2026-05-06 21:21 | 53.97527 | 3.31078 | 29574 ft | 435 kts | 22° |
| 2026-05-06 21:22 | 54.00342 | 3.33044 | 29693 ft | 439 kts | 22° |
| 2026-05-06 21:22 | 54.03164 | 3.35017 | 30005 ft | 438 kts | 22° |
| 2026-05-06 21:22 | 54.05976 | 3.36987 | 30409 ft | 435 kts | 22° |
| 2026-05-06 21:22 | 54.08770 | 3.38946 | 30758 ft | 433 kts | 22° |
| 2026-05-06 21:23 | 54.11554 | 3.40902 | 30995 ft | 433 kts | 22° |
| 2026-05-06 21:23 | 54.14345 | 3.42865 | 31166 ft | 434 kts | 22° |
| 2026-05-06 21:23 | 54.17142 | 3.44835 | 31321 ft | 435 kts | 22° |
| 2026-05-06 21:23 | 54.19939 | 3.46808 | 31522 ft | 435 kts | 22° |
| 2026-05-06 21:24 | 54.22737 | 3.48786 | 31735 ft | 435 kts | 22° |
| 2026-05-06 21:24 | 54.25530 | 3.50762 | 31932 ft | 434 kts | 22° |
| 2026-05-06 21:24 | 54.28320 | 3.52739 | 32110 ft | 435 kts | 22° |
| 2026-05-06 21:24 | 54.31115 | 3.54722 | 32282 ft | 435 kts | 22° |
| 2026-05-06 21:25 | 54.33906 | 3.56705 | 32472 ft | 434 kts | 22° |
| 2026-05-06 21:25 | 54.36696 | 3.58691 | 32658 ft | 434 kts | 22° |
| 2026-05-06 21:25 | 54.39487 | 3.60681 | 32822 ft | 434 kts | 22° |
| 2026-05-06 21:25 | 54.42274 | 3.62671 | 32974 ft | 434 kts | 22° |
| 2026-05-06 21:26 | 54.45065 | 3.64665 | 33152 ft | 434 kts | 22° |
| 2026-05-06 21:26 | 54.47852 | 3.66661 | 33325 ft | 434 kts | 22° |
| 2026-05-06 21:26 | 54.50638 | 3.68659 | 33474 ft | 434 kts | 22° |
| 2026-05-06 21:26 | 54.53424 | 3.70660 | 33616 ft | 434 kts | 22° |
| 2026-05-06 21:27 | 54.56208 | 3.72662 | 33759 ft | 434 kts | 22° |
| 2026-05-06 21:27 | 54.58995 | 3.74669 | 33930 ft | 433 kts | 22° |
| 2026-05-06 21:27 | 54.61776 | 3.76675 | 34073 ft | 434 kts | 22° |
| 2026-05-06 21:27 | 54.64560 | 3.78685 | 34182 ft | 434 kts | 22° |
| 2026-05-06 21:28 | 54.67347 | 3.80702 | 34323 ft | 434 kts | 22° |
| 2026-05-06 21:28 | 54.70125 | 3.82715 | 34549 ft | 432 kts | 22° |
| 2026-05-06 21:28 | 54.72892 | 3.84722 | 34672 ft | 432 kts | 22° |
| 2026-05-06 21:29 | 54.78453 | 3.88766 | 34842 ft | 434 kts | 22° |
| 2026-05-06 21:29 | 54.81237 | 3.90796 | 34996 ft | 433 kts | 22° |
| 2026-05-06 21:29 | 54.84007 | 3.92818 | 35132 ft | 433 kts | 22° |
| 2026-05-06 21:29 | 54.86786 | 3.94849 | 35237 ft | 433 kts | 22° |
| 2026-05-06 21:30 | 54.89526 | 3.96855 | 35329 ft | 433 kts | 22° |
| 2026-05-06 21:30 | 54.92303 | 3.98892 | 35452 ft | 433 kts | 22° |
| 2026-05-06 21:30 | 54.95078 | 4.00930 | 35579 ft | 433 kts | 22° |
| 2026-05-06 21:31 | 55.00628 | 4.05014 | 35772 ft | 433 kts | 22° |
| 2026-05-06 21:31 | 55.03398 | 4.07058 | 35879 ft | 433 kts | 22° |
| 2026-05-06 21:31 | 55.06171 | 4.09106 | 35988 ft | 433 kts | 22° |
| 2026-05-06 21:32 | 55.11719 | 4.13214 | 36166 ft | 433 kts | 23° |
| 2026-05-06 21:32 | 55.17257 | 4.17328 | 36378 ft | 432 kts | 23° |
| 2026-05-06 21:32 | 55.20027 | 4.19389 | 36455 ft | 433 kts | 23° |
| 2026-05-06 21:33 | 55.25563 | 4.23520 | 36637 ft | 432 kts | 23° |
| 2026-05-06 21:33 | 55.31094 | 4.27659 | 36777 ft | 432 kts | 23° |
| 2026-05-06 21:34 | 55.36612 | 4.31801 | 36772 ft | 430 kts | 23° |
| 2026-05-06 21:34 | 55.41183 | 4.35242 | 36777 ft | 429 kts | 23° |
| 2026-05-06 21:35 | 55.46663 | 4.39378 | 36783 ft | 428 kts | 23° |
| 2026-05-06 21:35 | 55.52126 | 4.43514 | 36791 ft | 426 kts | 23° |
| 2026-05-06 21:36 | 55.57566 | 4.47645 | 36797 ft | 425 kts | 23° |
| 2026-05-06 21:36 | 55.62995 | 4.51781 | 36802 ft | 424 kts | 23° |
| 2026-05-06 21:37 | 55.68372 | 4.55889 | 36975 ft | 417 kts | 23° |
| 2026-05-06 21:37 | 55.73668 | 4.59947 | 36991 ft | 413 kts | 23° |
| 2026-05-06 21:38 | 55.78919 | 4.63982 | 37002 ft | 411 kts | 23° |
| 2026-05-06 21:38 | 55.84210 | 4.68061 | 37012 ft | 418 kts | 23° |
| 2026-05-06 21:39 | 55.89589 | 4.72220 | 37011 ft | 425 kts | 23° |
| 2026-05-06 21:39 | 55.95101 | 4.76494 | 36655 ft | 441 kts | 23° |
| 2026-05-06 21:40 | 55.97943 | 4.78704 | 36431 ft | 450 kts | 23° |
| 2026-05-06 21:40 | 56.00836 | 4.80956 | 36199 ft | 459 kts | 23° |
| 2026-05-06 21:40 | 56.03786 | 4.83257 | 36049 ft | 465 kts | 23° |
| 2026-05-06 21:40 | 56.06765 | 4.85584 | 36015 ft | 469 kts | 23° |
| 2026-05-06 21:41 | 56.12770 | 4.90288 | 36001 ft | 473 kts | 23° |
| 2026-05-06 21:41 | 56.18741 | 4.94982 | 35989 ft | 464 kts | 24° |
| 2026-05-06 21:42 | 56.24564 | 4.99573 | 35991 ft | 456 kts | 23° |
| 2026-05-06 21:42 | 56.30440 | 5.03737 | 36004 ft | 454 kts | 20° |